Pagina principale
METAR-TAF:

METAR-TAF

Aeroporti :

Sion, Svizzera

latitudine: 46-13N, longitudine: 007-20E, altezza: 482 m

Osservazione

Il bollettino è stato emesso 27 minuti fa, alle 13:20 UTC
Vento 10 kt da ovest/sud-ovest
Temperature 16°C
Umidità 39%
Pressione 1005 hPa
Visibilità 10 km o più
Nubi sparse ad un'altezza di 6000 ft
Nuvoloso ad un'altezza di 10000 ft

METAR: LSGS 271320Z 24010KT 9999 SCT060 BKN100 16/02 Q1005

Ora: 15:47 (13:47 UTC)

Previsione

Il bollettino è stato emesso 2 ore e 22 minuti fa, alle 11:25 UTC
Previsione valida dal 27 alle 12 UTC al 27 alle 21 UTC
Vento 10 kt da ovest/sud-ovest
Visibilità 10 km o più
Poco nuvoloso ad un'altezza di 3500 ft
Nubi sparse ad un'altezza di 6000 ft
Nuvoloso ad un'altezza di 10000 ft
Probabilità 30% :
Temporaneamente
dal 27 alle 12 UTC al 27 alle 21 UTC
rovesci di pioggia

TAF: LSGS 271125Z 2712/2721 24010KT 9999 FEW035 SCT060 BKN100 PROB30 TEMPO 2712/2721 SHRA

Osservazioni e previsioni meteorologiche di più di 4000 aeroporti (messaggi METAR e TAF).

Le stazioni disponibili sono rappresentate dai dischi gialli e rossi sulla carta.

Puntare il mouse per vedere il nome della stazione.

Clicca sopra per visualizzare le osservazioni e previsioni meteorologiche.

Per cambiare la mappa : fare clic sui pulsanti verdi con una croce nera per ingrandire, il pulsante verde con un trattino per diminuire, o sulla freccia verde per le mappe adiacenti.


METAR-TAF: